sensor_id;sensor_type;location;lat;lon;timestamp;temperature;humidity
67064;SHT30;58476;48.072;11.970;2024-02-23T00:01:30;21.63;47.86
67064;SHT30;58476;48.072;11.970;2024-02-23T00:03:56;21.65;47.83
67064;SHT30;58476;48.072;11.970;2024-02-23T00:06:21;21.63;47.83
67064;SHT30;58476;48.072;11.970;2024-02-23T00:08:46;21.59;47.88
67064;SHT30;58476;48.072;11.970;2024-02-23T00:11:12;21.58;47.82
67064;SHT30;58476;48.072;11.970;2024-02-23T00:13:37;21.55;47.93
67064;SHT30;58476;48.072;11.970;2024-02-23T00:16:03;21.54;47.98
67064;SHT30;58476;48.072;11.970;2024-02-23T00:18:28;21.51;48.03
67064;SHT30;58476;48.072;11.970;2024-02-23T00:20:53;21.51;47.93
67064;SHT30;58476;48.072;11.970;2024-02-23T00:23:19;21.48;48.03
67064;SHT30;58476;48.072;11.970;2024-02-23T00:25:44;21.47;48.04
67064;SHT30;58476;48.072;11.970;2024-02-23T00:28:09;21.44;47.96
67064;SHT30;58476;48.072;11.970;2024-02-23T00:30:34;21.42;47.97
67064;SHT30;58476;48.072;11.970;2024-02-23T00:33:00;21.38;47.93
67064;SHT30;58476;48.072;11.970;2024-02-23T00:35:25;21.39;47.98
67064;SHT30;58476;48.072;11.970;2024-02-23T00:37:50;21.38;48.00
67064;SHT30;58476;48.072;11.970;2024-02-23T00:40:16;21.37;47.95
67064;SHT30;58476;48.072;11.970;2024-02-23T00:42:41;21.31;48.01
67064;SHT30;58476;48.072;11.970;2024-02-23T00:45:07;21.34;47.95
67064;SHT30;58476;48.072;11.970;2024-02-23T00:47:32;21.30;47.98
67064;SHT30;58476;48.072;11.970;2024-02-23T00:49:58;21.31;47.92
67064;SHT30;58476;48.072;11.970;2024-02-23T00:52:23;21.28;47.97
67064;SHT30;58476;48.072;11.970;2024-02-23T00:54:48;21.30;47.98
67064;SHT30;58476;48.072;11.970;2024-02-23T00:57:14;21.25;47.96
67064;SHT30;58476;48.072;11.970;2024-02-23T00:59:39;21.24;47.93
67064;SHT30;58476;48.072;11.970;2024-02-23T01:02:04;21.24;47.94
67064;SHT30;58476;48.072;11.970;2024-02-23T01:04:30;21.24;47.88
67064;SHT30;58476;48.072;11.970;2024-02-23T01:06:55;21.21;47.90
67064;SHT30;58476;48.072;11.970;2024-02-23T01:09:20;21.20;47.88
67064;SHT30;58476;48.072;11.970;2024-02-23T01:11:47;21.18;47.94
67064;SHT30;58476;48.072;11.970;2024-02-23T01:14:12;21.17;47.89
67064;SHT30;58476;48.072;11.970;2024-02-23T01:16:37;21.15;47.90
67064;SHT30;58476;48.072;11.970;2024-02-23T01:19:02;21.15;47.91
67064;SHT30;58476;48.072;11.970;2024-02-23T01:21:28;21.15;47.85
67064;SHT30;58476;48.072;11.970;2024-02-23T01:23:54;21.11;47.85
67064;SHT30;58476;48.072;11.970;2024-02-23T01:26:19;21.12;47.83
67064;SHT30;58476;48.072;11.970;2024-02-23T01:28:44;21.12;47.89
67064;SHT30;58476;48.072;11.970;2024-02-23T01:31:11;21.11;47.89
67064;SHT30;58476;48.072;11.970;2024-02-23T01:33:37;21.10;47.88
67064;SHT30;58476;48.072;11.970;2024-02-23T01:36:04;21.10;47.72
67064;SHT30;58476;48.072;11.970;2024-02-23T01:38:29;21.11;47.98
67064;SHT30;58476;48.072;11.970;2024-02-23T01:40:54;21.10;47.95
67064;SHT30;58476;48.072;11.970;2024-02-23T01:43:20;21.07;47.91
67064;SHT30;58476;48.072;11.970;2024-02-23T01:45:45;21.18;47.67
67064;SHT30;58476;48.072;11.970;2024-02-23T01:48:11;21.18;47.68
67064;SHT30;58476;48.072;11.970;2024-02-23T01:50:37;21.24;47.93
67064;SHT30;58476;48.072;11.970;2024-02-23T01:53:02;21.23;47.70
67064;SHT30;58476;48.072;11.970;2024-02-23T01:55:28;21.23;47.58
67064;SHT30;58476;48.072;11.970;2024-02-23T01:57:54;21.24;47.45
67064;SHT30;58476;48.072;11.970;2024-02-23T02:00:20;21.24;47.45
67064;SHT30;58476;48.072;11.970;2024-02-23T02:02:52;21.24;47.46
67064;SHT30;58476;48.072;11.970;2024-02-23T02:05:18;21.27;47.36
67064;SHT30;58476;48.072;11.970;2024-02-23T02:07:43;21.25;47.37
67064;SHT30;58476;48.072;11.970;2024-02-23T02:10:09;21.27;47.34
67064;SHT30;58476;48.072;11.970;2024-02-23T02:12:35;21.24;47.22
67064;SHT30;58476;48.072;11.970;2024-02-23T02:15:01;21.25;47.19
67064;SHT30;58476;48.072;11.970;2024-02-23T02:17:27;21.24;47.18
67064;SHT30;58476;48.072;11.970;2024-02-23T02:19:53;21.25;47.13
67064;SHT30;58476;48.072;11.970;2024-02-23T02:22:18;21.25;47.13
67064;SHT30;58476;48.072;11.970;2024-02-23T02:24:44;21.25;47.10
67064;SHT30;58476;48.072;11.970;2024-02-23T02:27:09;21.23;47.05
67064;SHT30;58476;48.072;11.970;2024-02-23T02:29:37;21.27;47.02
67064;SHT30;58476;48.072;11.970;2024-02-23T02:32:03;21.25;46.95
67064;SHT30;58476;48.072;11.970;2024-02-23T02:34:28;21.25;46.98
67064;SHT30;58476;48.072;11.970;2024-02-23T02:36:54;21.24;46.95
67064;SHT30;58476;48.072;11.970;2024-02-23T02:39:19;21.21;46.96
67064;SHT30;58476;48.072;11.970;2024-02-23T02:41:44;21.20;47.00
67064;SHT30;58476;48.072;11.970;2024-02-23T02:44:10;21.18;46.97
67064;SHT30;58476;48.072;11.970;2024-02-23T02:46:35;21.17;47.03
67064;SHT30;58476;48.072;11.970;2024-02-23T02:49:00;21.18;47.01
67064;SHT30;58476;48.072;11.970;2024-02-23T02:51:26;21.11;47.14
67064;SHT30;58476;48.072;11.970;2024-02-23T02:53:51;21.11;47.12
67064;SHT30;58476;48.072;11.970;2024-02-23T02:56:17;21.10;47.21
67064;SHT30;58476;48.072;11.970;2024-02-23T02:58:42;21.08;47.17
67064;SHT30;58476;48.072;11.970;2024-02-23T03:01:07;21.07;47.19
67064;SHT30;58476;48.072;11.970;2024-02-23T03:03:33;21.04;47.21
67064;SHT30;58476;48.072;11.970;2024-02-23T03:05:58;21.03;47.23
67064;SHT30;58476;48.072;11.970;2024-02-23T03:08:23;21.00;47.19
67064;SHT30;58476;48.072;11.970;2024-02-23T03:10:49;20.97;47.22
67064;SHT30;58476;48.072;11.970;2024-02-23T03:13:14;21.00;47.23
67064;SHT30;58476;48.072;11.970;2024-02-23T03:15:39;20.97;47.20
67064;SHT30;58476;48.072;11.970;2024-02-23T03:18:05;20.96;47.21
67064;SHT30;58476;48.072;11.970;2024-02-23T03:20:30;20.96;47.17
67064;SHT30;58476;48.072;11.970;2024-02-23T03:22:55;20.96;47.21
67064;SHT30;58476;48.072;11.970;2024-02-23T03:25:21;20.90;47.22
67064;SHT30;58476;48.072;11.970;2024-02-23T03:27:46;20.88;47.17
67064;SHT30;58476;48.072;11.970;2024-02-23T03:30:11;20.87;47.18
67064;SHT30;58476;48.072;11.970;2024-02-23T03:32:37;20.87;47.15
67064;SHT30;58476;48.072;11.970;2024-02-23T03:35:03;20.87;47.16
67064;SHT30;58476;48.072;11.970;2024-02-23T03:37:28;20.84;47.16
67064;SHT30;58476;48.072;11.970;2024-02-23T03:39:53;20.84;47.14
67064;SHT30;58476;48.072;11.970;2024-02-23T03:42:19;20.81;47.14
67064;SHT30;58476;48.072;11.970;2024-02-23T03:44:44;20.81;47.12
67064;SHT30;58476;48.072;11.970;2024-02-23T03:47:09;20.81;47.16
67064;SHT30;58476;48.072;11.970;2024-02-23T03:49:35;20.79;47.06
67064;SHT30;58476;48.072;11.970;2024-02-23T03:52:00;20.79;47.09
67064;SHT30;58476;48.072;11.970;2024-02-23T03:54:25;20.76;47.09
67064;SHT30;58476;48.072;11.970;2024-02-23T03:56:51;20.79;47.08
67064;SHT30;58476;48.072;11.970;2024-02-23T03:59:16;20.76;47.12
67064;SHT30;58476;48.072;11.970;2024-02-23T04:01:41;20.76;47.11
67064;SHT30;58476;48.072;11.970;2024-02-23T04:04:07;20.75;47.05
67064;SHT30;58476;48.072;11.970;2024-02-23T04:06:33;20.72;47.02
67064;SHT30;58476;48.072;11.970;2024-02-23T04:08:58;20.72;47.11
67064;SHT30;58476;48.072;11.970;2024-02-23T04:11:24;20.72;47.10
67064;SHT30;58476;48.072;11.970;2024-02-23T04:13:49;20.69;47.02
67064;SHT30;58476;48.072;11.970;2024-02-23T04:16:14;20.70;46.96
67064;SHT30;58476;48.072;11.970;2024-02-23T04:18:40;20.75;46.81
67064;SHT30;58476;48.072;11.970;2024-02-23T04:21:05;20.76;46.89
67064;SHT30;58476;48.072;11.970;2024-02-23T04:23:30;20.77;46.80
67064;SHT30;58476;48.072;11.970;2024-02-23T04:25:56;20.80;46.68
67064;SHT30;58476;48.072;11.970;2024-02-23T04:28:21;20.81;46.62
67064;SHT30;58476;48.072;11.970;2024-02-23T04:30:46;20.81;46.55
67064;SHT30;58476;48.072;11.970;2024-02-23T04:33:12;20.83;46.51
67064;SHT30;58476;48.072;11.970;2024-02-23T04:35:37;20.87;46.41
67064;SHT30;58476;48.072;11.970;2024-02-23T04:38:03;20.86;46.45
67064;SHT30;58476;48.072;11.970;2024-02-23T04:40:28;20.88;46.34
67064;SHT30;58476;48.072;11.970;2024-02-23T04:42:53;20.90;46.30
67064;SHT30;58476;48.072;11.970;2024-02-23T04:45:19;20.90;46.28
67064;SHT30;58476;48.072;11.970;2024-02-23T04:47:44;20.91;46.25
67064;SHT30;58476;48.072;11.970;2024-02-23T04:50:10;20.93;46.29
67064;SHT30;58476;48.072;11.970;2024-02-23T04:52:35;20.93;46.15
67064;SHT30;58476;48.072;11.970;2024-02-23T04:55:00;20.91;45.95
67064;SHT30;58476;48.072;11.970;2024-02-23T04:57:26;20.94;46.12
67064;SHT30;58476;48.072;11.970;2024-02-23T04:59:51;21.00;46.29
67064;SHT30;58476;48.072;11.970;2024-02-23T05:02:16;20.98;46.37
67064;SHT30;58476;48.072;11.970;2024-02-23T05:04:42;21.01;46.21
67064;SHT30;58476;48.072;11.970;2024-02-23T05:07:07;21.08;46.15
67064;SHT30;58476;48.072;11.970;2024-02-23T05:09:32;21.07;46.33
67064;SHT30;58476;48.072;11.970;2024-02-23T05:11:58;21.11;46.74
67064;SHT30;58476;48.072;11.970;2024-02-23T05:14:23;21.12;47.09
67064;SHT30;58476;48.072;11.970;2024-02-23T05:16:48;21.11;47.32
67064;SHT30;58476;48.072;11.970;2024-02-23T05:19:14;21.10;47.63
67064;SHT30;58476;48.072;11.970;2024-02-23T05:21:39;21.14;47.36
67064;SHT30;58476;48.072;11.970;2024-02-23T05:24:04;21.17;47.27
67064;SHT30;58476;48.072;11.970;2024-02-23T05:26:30;21.11;47.74
67064;SHT30;58476;48.072;11.970;2024-02-23T05:28:55;21.11;47.48
67064;SHT30;58476;48.072;11.970;2024-02-23T05:31:23;21.10;48.03
67064;SHT30;58476;48.072;11.970;2024-02-23T05:34:06;21.10;47.93
67064;SHT30;58476;48.072;11.970;2024-02-23T05:36:32;21.10;47.56
67064;SHT30;58476;48.072;11.970;2024-02-23T05:38:57;21.08;48.01
67064;SHT30;58476;48.072;11.970;2024-02-23T05:41:22;21.04;47.78
67064;SHT30;58476;48.072;11.970;2024-02-23T05:43:48;21.00;47.85
67064;SHT30;58476;48.072;11.970;2024-02-23T05:46:13;20.97;47.87
67064;SHT30;58476;48.072;11.970;2024-02-23T05:48:38;20.93;47.63
67064;SHT30;58476;48.072;11.970;2024-02-23T05:51:04;20.96;47.75
67064;SHT30;58476;48.072;11.970;2024-02-23T05:53:29;21.01;47.74
67064;SHT30;58476;48.072;11.970;2024-02-23T05:55:54;21.00;47.69
67064;SHT30;58476;48.072;11.970;2024-02-23T05:58:20;21.03;47.85
67064;SHT30;58476;48.072;11.970;2024-02-23T06:00:45;21.00;47.98
67064;SHT30;58476;48.072;11.970;2024-02-23T06:03:10;21.00;47.86
67064;SHT30;58476;48.072;11.970;2024-02-23T06:05:35;20.97;48.13
67064;SHT30;58476;48.072;11.970;2024-02-23T06:08:01;20.97;48.19
67064;SHT30;58476;48.072;11.970;2024-02-23T06:10:26;20.94;48.20
67064;SHT30;58476;48.072;11.970;2024-02-23T06:12:51;20.88;47.85
67064;SHT30;58476;48.072;11.970;2024-02-23T06:15:17;20.86;47.68
67064;SHT30;58476;48.072;11.970;2024-02-23T06:17:42;20.81;47.65
67064;SHT30;58476;48.072;11.970;2024-02-23T06:20:08;20.83;47.32
67064;SHT30;58476;48.072;11.970;2024-02-23T06:22:33;20.79;47.23
67064;SHT30;58476;48.072;11.970;2024-02-23T06:24:59;20.77;47.27
67064;SHT30;58476;48.072;11.970;2024-02-23T06:27:24;20.79;47.52
67064;SHT30;58476;48.072;11.970;2024-02-23T06:29:49;20.76;47.53
67064;SHT30;58476;48.072;11.970;2024-02-23T06:32:15;20.75;47.43
67064;SHT30;58476;48.072;11.970;2024-02-23T06:34:40;20.72;47.71
67064;SHT30;58476;48.072;11.970;2024-02-23T06:37:05;20.67;47.67
67064;SHT30;58476;48.072;11.970;2024-02-23T06:39:31;20.63;47.67
67064;SHT30;58476;48.072;11.970;2024-02-23T06:41:56;20.65;47.36
67064;SHT30;58476;48.072;11.970;2024-02-23T06:44:21;20.63;47.19
67064;SHT30;58476;48.072;11.970;2024-02-23T06:46:47;20.62;47.14
67064;SHT30;58476;48.072;11.970;2024-02-23T06:49:12;20.59;47.16
67064;SHT30;58476;48.072;11.970;2024-02-23T06:51:37;20.62;47.01
67064;SHT30;58476;48.072;11.970;2024-02-23T06:54:03;20.63;47.06
67064;SHT30;58476;48.072;11.970;2024-02-23T06:56:28;20.67;47.01
67064;SHT30;58476;48.072;11.970;2024-02-23T06:58:53;20.67;47.01
67064;SHT30;58476;48.072;11.970;2024-02-23T07:01:20;20.66;46.95
67064;SHT30;58476;48.072;11.970;2024-02-23T07:03:45;20.72;46.92
67064;SHT30;58476;48.072;11.970;2024-02-23T07:06:10;20.75;46.93
67064;SHT30;58476;48.072;11.970;2024-02-23T07:08:36;20.76;46.91
67064;SHT30;58476;48.072;11.970;2024-02-23T07:11:02;20.79;46.75
67064;SHT30;58476;48.072;11.970;2024-02-23T07:13:27;20.76;46.76
67064;SHT30;58476;48.072;11.970;2024-02-23T07:15:52;20.77;46.65
67064;SHT30;58476;48.072;11.970;2024-02-23T07:18:17;20.80;46.73
67064;SHT30;58476;48.072;11.970;2024-02-23T07:20:43;20.81;46.72
67064;SHT30;58476;48.072;11.970;2024-02-23T07:23:08;20.83;46.63
67064;SHT30;58476;48.072;11.970;2024-02-23T07:25:34;20.81;46.67
67064;SHT30;58476;48.072;11.970;2024-02-23T07:27:59;20.81;46.65
67064;SHT30;58476;48.072;11.970;2024-02-23T07:30:24;20.86;46.67
67064;SHT30;58476;48.072;11.970;2024-02-23T07:32:49;20.84;46.63
67064;SHT30;58476;48.072;11.970;2024-02-23T07:35:15;20.86;46.47
67064;SHT30;58476;48.072;11.970;2024-02-23T07:37:40;20.87;46.53
67064;SHT30;58476;48.072;11.970;2024-02-23T07:40:06;20.84;46.58
67064;SHT30;58476;48.072;11.970;2024-02-23T07:42:32;20.83;46.70
67064;SHT30;58476;48.072;11.970;2024-02-23T07:44:58;20.81;46.80
67064;SHT30;58476;48.072;11.970;2024-02-23T07:47:23;20.79;46.80
67064;SHT30;58476;48.072;11.970;2024-02-23T07:49:49;20.76;46.75
67064;SHT30;58476;48.072;11.970;2024-02-23T07:52:14;20.75;46.88
67064;SHT30;58476;48.072;11.970;2024-02-23T07:54:39;20.72;46.90
67064;SHT30;58476;48.072;11.970;2024-02-23T07:57:05;20.72;46.92
67064;SHT30;58476;48.072;11.970;2024-02-23T07:59:30;20.70;46.96
67064;SHT30;58476;48.072;11.970;2024-02-23T08:01:56;20.72;46.93
67064;SHT30;58476;48.072;11.970;2024-02-23T08:04:21;20.72;46.93
67064;SHT30;58476;48.072;11.970;2024-02-23T08:06:46;20.73;46.87
67064;SHT30;58476;48.072;11.970;2024-02-23T08:09:12;20.72;46.94
67064;SHT30;58476;48.072;11.970;2024-02-23T08:11:37;20.70;46.90
67064;SHT30;58476;48.072;11.970;2024-02-23T08:14:02;20.75;46.86
67064;SHT30;58476;48.072;11.970;2024-02-23T08:16:28;20.73;46.84
67064;SHT30;58476;48.072;11.970;2024-02-23T08:18:54;20.75;46.79
67064;SHT30;58476;48.072;11.970;2024-02-23T08:21:19;20.75;46.83
67064;SHT30;58476;48.072;11.970;2024-02-23T08:23:45;20.77;46.75
67064;SHT30;58476;48.072;11.970;2024-02-23T08:26:10;20.76;46.79
67064;SHT30;58476;48.072;11.970;2024-02-23T08:28:36;20.77;46.73
67064;SHT30;58476;48.072;11.970;2024-02-23T08:31:01;20.80;46.71
67064;SHT30;58476;48.072;11.970;2024-02-23T08:33:26;20.77;46.65
67064;SHT30;58476;48.072;11.970;2024-02-23T08:35:52;20.80;46.67
67064;SHT30;58476;48.072;11.970;2024-02-23T08:38:17;20.80;46.61
67064;SHT30;58476;48.072;11.970;2024-02-23T08:40:42;20.81;46.55
67064;SHT30;58476;48.072;11.970;2024-02-23T08:43:08;20.84;46.54
67064;SHT30;58476;48.072;11.970;2024-02-23T08:45:33;20.83;46.57
67064;SHT30;58476;48.072;11.970;2024-02-23T08:47:58;20.79;46.52
67064;SHT30;58476;48.072;11.970;2024-02-23T08:50:24;20.84;46.51
67064;SHT30;58476;48.072;11.970;2024-02-23T08:52:50;20.84;46.52
67064;SHT30;58476;48.072;11.970;2024-02-23T08:55:15;20.86;46.55
67064;SHT30;58476;48.072;11.970;2024-02-23T08:57:40;20.86;46.41
67064;SHT30;58476;48.072;11.970;2024-02-23T09:00:06;20.87;46.52
67064;SHT30;58476;48.072;11.970;2024-02-23T09:02:32;20.90;46.41
67064;SHT30;58476;48.072;11.970;2024-02-23T09:04:58;20.87;46.49
67064;SHT30;58476;48.072;11.970;2024-02-23T09:07:23;20.88;46.42
67064;SHT30;58476;48.072;11.970;2024-02-23T09:09:48;20.90;46.32
67064;SHT30;58476;48.072;11.970;2024-02-23T09:12:15;20.93;46.33
67064;SHT30;58476;48.072;11.970;2024-02-23T09:14:40;20.96;46.19
67064;SHT30;58476;48.072;11.970;2024-02-23T09:17:05;20.97;46.20
67064;SHT30;58476;48.072;11.970;2024-02-23T09:19:31;21.03;46.10
67064;SHT30;58476;48.072;11.970;2024-02-23T09:21:56;21.06;45.97
67064;SHT30;58476;48.072;11.970;2024-02-23T09:24:21;21.08;45.86
67064;SHT30;58476;48.072;11.970;2024-02-23T09:26:47;21.12;45.82
67064;SHT30;58476;48.072;11.970;2024-02-23T09:29:13;21.17;45.77
67064;SHT30;58476;48.072;11.970;2024-02-23T09:31:38;21.24;45.68
67064;SHT30;58476;48.072;11.970;2024-02-23T09:34:03;21.27;45.53
67064;SHT30;58476;48.072;11.970;2024-02-23T09:36:29;21.30;45.48
67064;SHT30;58476;48.072;11.970;2024-02-23T09:38:54;21.35;45.29
67064;SHT30;58476;48.072;11.970;2024-02-23T09:41:23;21.41;45.28
67064;SHT30;58476;48.072;11.970;2024-02-23T09:43:49;21.41;45.28
67064;SHT30;58476;48.072;11.970;2024-02-23T09:46:18;21.45;45.13
67064;SHT30;58476;48.072;11.970;2024-02-23T09:48:43;21.47;45.12
67064;SHT30;58476;48.072;11.970;2024-02-23T09:51:10;21.52;45.04
67064;SHT30;58476;48.072;11.970;2024-02-23T09:53:37;21.52;44.96
67064;SHT30;58476;48.072;11.970;2024-02-23T09:56:03;21.55;44.85
67064;SHT30;58476;48.072;11.970;2024-02-23T09:58:30;21.55;44.84
67064;SHT30;58476;48.072;11.970;2024-02-23T10:00:59;21.56;44.90
67064;SHT30;58476;48.072;11.970;2024-02-23T10:03:28;21.62;44.78
67064;SHT30;58476;48.072;11.970;2024-02-23T10:05:53;21.66;44.62
67064;SHT30;58476;48.072;11.970;2024-02-23T10:08:19;21.65;44.71
67064;SHT30;58476;48.072;11.970;2024-02-23T10:10:46;21.68;44.70
67064;SHT30;58476;48.072;11.970;2024-02-23T10:13:11;21.68;44.56
67064;SHT30;58476;48.072;11.970;2024-02-23T10:15:37;21.68;44.64
67064;SHT30;58476;48.072;11.970;2024-02-23T10:18:03;21.66;44.59
67064;SHT30;58476;48.072;11.970;2024-02-23T10:20:29;21.68;44.63
67064;SHT30;58476;48.072;11.970;2024-02-23T10:22:54;21.63;44.66
67064;SHT30;58476;48.072;11.970;2024-02-23T10:25:20;21.66;44.67
67064;SHT30;58476;48.072;11.970;2024-02-23T10:27:45;21.68;44.65
67064;SHT30;58476;48.072;11.970;2024-02-23T10:30:11;21.66;44.71
67064;SHT30;58476;48.072;11.970;2024-02-23T10:32:41;21.66;44.61
67064;SHT30;58476;48.072;11.970;2024-02-23T10:35:15;21.69;44.70
67064;SHT30;58476;48.072;11.970;2024-02-23T10:37:42;21.66;44.67
67064;SHT30;58476;48.072;11.970;2024-02-23T10:40:11;21.68;44.63
67064;SHT30;58476;48.072;11.970;2024-02-23T10:42:38;21.66;44.59
67064;SHT30;58476;48.072;11.970;2024-02-23T10:45:05;21.69;44.60
67064;SHT30;58476;48.072;11.970;2024-02-23T10:47:32;21.69;44.61
67064;SHT30;58476;48.072;11.970;2024-02-23T10:50:02;21.68;44.55
67064;SHT30;58476;48.072;11.970;2024-02-23T10:52:27;21.68;44.55
67064;SHT30;58476;48.072;11.970;2024-02-23T10:54:54;21.69;44.56
67064;SHT30;58476;48.072;11.970;2024-02-23T10:57:21;21.68;44.60
67064;SHT30;58476;48.072;11.970;2024-02-23T10:59:47;21.69;44.59
67064;SHT30;58476;48.072;11.970;2024-02-23T11:02:17;21.69;44.57
67064;SHT30;58476;48.072;11.970;2024-02-23T11:04:47;21.66;44.59
67064;SHT30;58476;48.072;11.970;2024-02-23T11:07:13;21.66;44.57
67064;SHT30;58476;48.072;11.970;2024-02-23T11:09:39;21.69;44.51
67064;SHT30;58476;48.072;11.970;2024-02-23T11:12:05;21.68;44.55
67064;SHT30;58476;48.072;11.970;2024-02-23T11:14:32;21.68;44.52
67064;SHT30;58476;48.072;11.970;2024-02-23T11:16:58;21.68;44.52
67064;SHT30;58476;48.072;11.970;2024-02-23T11:19:32;21.66;44.58
67064;SHT30;58476;48.072;11.970;2024-02-23T11:21:58;21.63;44.52
67064;SHT30;58476;48.072;11.970;2024-02-23T11:24:27;21.66;44.50
67064;SHT30;58476;48.072;11.970;2024-02-23T11:26:59;21.68;44.52
67064;SHT30;58476;48.072;11.970;2024-02-23T11:29:29;21.66;44.50
67064;SHT30;58476;48.072;11.970;2024-02-23T11:31:54;21.66;44.49
67064;SHT30;58476;48.072;11.970;2024-02-23T11:34:23;21.65;44.47
67064;SHT30;58476;48.072;11.970;2024-02-23T11:36:51;21.66;44.43
67064;SHT30;58476;48.072;11.970;2024-02-23T11:39:16;21.63;44.46
67064;SHT30;58476;48.072;11.970;2024-02-23T11:41:42;21.63;44.52
67064;SHT30;58476;48.072;11.970;2024-02-23T11:44:08;21.62;44.48
67064;SHT30;58476;48.072;11.970;2024-02-23T11:46:33;21.63;44.34
67064;SHT30;58476;48.072;11.970;2024-02-23T11:48:58;21.65;44.34
67064;SHT30;58476;48.072;11.970;2024-02-23T11:51:24;21.68;44.42
67064;SHT30;58476;48.072;11.970;2024-02-23T11:53:50;21.74;44.21
67064;SHT30;58476;48.072;11.970;2024-02-23T11:56:16;21.75;44.19
67064;SHT30;58476;48.072;11.970;2024-02-23T11:58:42;21.75;44.17
67064;SHT30;58476;48.072;11.970;2024-02-23T12:01:07;21.81;44.07
67064;SHT30;58476;48.072;11.970;2024-02-23T12:03:33;21.82;43.95
67064;SHT30;58476;48.072;11.970;2024-02-23T12:05:59;21.85;43.84
67064;SHT30;58476;48.072;11.970;2024-02-23T12:08:26;21.85;43.85
67064;SHT30;58476;48.072;11.970;2024-02-23T12:10:55;21.89;43.86
67064;SHT30;58476;48.072;11.970;2024-02-23T12:13:21;21.89;43.80
67064;SHT30;58476;48.072;11.970;2024-02-23T12:15:47;21.92;43.65
67064;SHT30;58476;48.072;11.970;2024-02-23T12:18:13;21.96;43.67
67064;SHT30;58476;48.072;11.970;2024-02-23T12:20:38;21.97;43.66
67064;SHT30;58476;48.072;11.970;2024-02-23T12:23:04;21.96;43.69
67064;SHT30;58476;48.072;11.970;2024-02-23T12:25:29;21.95;43.66
67064;SHT30;58476;48.072;11.970;2024-02-23T12:27:55;21.97;43.61
67064;SHT30;58476;48.072;11.970;2024-02-23T12:30:21;21.97;43.65
67064;SHT30;58476;48.072;11.970;2024-02-23T12:32:46;21.97;43.65
67064;SHT30;58476;48.072;11.970;2024-02-23T12:35:12;21.99;43.58
67064;SHT30;58476;48.072;11.970;2024-02-23T12:37:37;22.07;43.23
67064;SHT30;58476;48.072;11.970;2024-02-23T12:40:03;22.05;43.23
67064;SHT30;58476;48.072;11.970;2024-02-23T12:42:28;22.03;43.01
67064;SHT30;58476;48.072;11.970;2024-02-23T12:44:54;21.99;43.05
67064;SHT30;58476;48.072;11.970;2024-02-23T12:47:19;22.02;43.15
67064;SHT30;58476;48.072;11.970;2024-02-23T12:49:45;21.97;43.27
67064;SHT30;58476;48.072;11.970;2024-02-23T12:52:10;22.00;43.54
67064;SHT30;58476;48.072;11.970;2024-02-23T12:54:35;21.99;43.13
67064;SHT30;58476;48.072;11.970;2024-02-23T12:57:00;21.99;43.28
67064;SHT30;58476;48.072;11.970;2024-02-23T12:59:26;21.96;43.28
67064;SHT30;58476;48.072;11.970;2024-02-23T13:01:51;21.95;43.50
67064;SHT30;58476;48.072;11.970;2024-02-23T13:04:16;21.95;43.20
67064;SHT30;58476;48.072;11.970;2024-02-23T13:06:42;21.95;43.42
67064;SHT30;58476;48.072;11.970;2024-02-23T13:09:07;21.93;43.49
67064;SHT30;58476;48.072;11.970;2024-02-23T13:11:34;21.95;43.46
67064;SHT30;58476;48.072;11.970;2024-02-23T13:13:59;21.99;43.51
67064;SHT30;58476;48.072;11.970;2024-02-23T13:16:24;22.02;43.53
67064;SHT30;58476;48.072;11.970;2024-02-23T13:18:50;21.99;43.65
67064;SHT30;58476;48.072;11.970;2024-02-23T13:21:15;22.02;43.60
67064;SHT30;58476;48.072;11.970;2024-02-23T13:23:40;22.00;43.59
67064;SHT30;58476;48.072;11.970;2024-02-23T13:26:06;22.03;43.59
67064;SHT30;58476;48.072;11.970;2024-02-23T13:28:31;22.03;43.69
67064;SHT30;58476;48.072;11.970;2024-02-23T13:30:56;22.02;43.74
67064;SHT30;58476;48.072;11.970;2024-02-23T13:33:22;21.99;43.84
67064;SHT30;58476;48.072;11.970;2024-02-23T13:35:47;21.97;43.97
67064;SHT30;58476;48.072;11.970;2024-02-23T13:38:13;21.92;44.00
67064;SHT30;58476;48.072;11.970;2024-02-23T13:40:38;21.90;43.82
67064;SHT30;58476;48.072;11.970;2024-02-23T13:43:04;21.88;43.85
67064;SHT30;58476;48.072;11.970;2024-02-23T13:45:29;21.83;43.90
67064;SHT30;58476;48.072;11.970;2024-02-23T13:47:57;21.83;43.99
67064;SHT30;58476;48.072;11.970;2024-02-23T13:50:22;21.82;43.90
67064;SHT30;58476;48.072;11.970;2024-02-23T13:52:48;21.82;44.01
67064;SHT30;58476;48.072;11.970;2024-02-23T13:55:13;21.79;43.93
67064;SHT30;58476;48.072;11.970;2024-02-23T13:57:39;21.78;43.92
67064;SHT30;58476;48.072;11.970;2024-02-23T14:00:04;21.78;43.94
67064;SHT30;58476;48.072;11.970;2024-02-23T14:02:36;21.76;43.95
67064;SHT30;58476;48.072;11.970;2024-02-23T14:05:02;21.78;43.91
67064;SHT30;58476;48.072;11.970;2024-02-23T14:07:27;21.76;43.96
67064;SHT30;58476;48.072;11.970;2024-02-23T14:09:52;21.74;44.05
67064;SHT30;58476;48.072;11.970;2024-02-23T14:12:18;21.74;43.96
67064;SHT30;58476;48.072;11.970;2024-02-23T14:14:43;21.75;43.98
67064;SHT30;58476;48.072;11.970;2024-02-23T14:17:08;21.71;44.26
67064;SHT30;58476;48.072;11.970;2024-02-23T14:19:34;21.72;44.11
67064;SHT30;58476;48.072;11.970;2024-02-23T14:21:59;21.72;44.34
67064;SHT30;58476;48.072;11.970;2024-02-23T14:24:24;21.76;44.01
67064;SHT30;58476;48.072;11.970;2024-02-23T14:26:50;21.78;43.96
67064;SHT30;58476;48.072;11.970;2024-02-23T14:29:15;21.85;43.83
67064;SHT30;58476;48.072;11.970;2024-02-23T14:31:40;21.90;43.74
67064;SHT30;58476;48.072;11.970;2024-02-23T14:34:06;21.92;43.65
67064;SHT30;58476;48.072;11.970;2024-02-23T14:36:31;21.95;43.68
67064;SHT30;58476;48.072;11.970;2024-02-23T14:38:56;22.00;43.52
67064;SHT30;58476;48.072;11.970;2024-02-23T14:41:22;21.99;43.47
67064;SHT30;58476;48.072;11.970;2024-02-23T14:43:47;22.03;43.49
67064;SHT30;58476;48.072;11.970;2024-02-23T14:46:12;22.05;43.41
67064;SHT30;58476;48.072;11.970;2024-02-23T14:48:38;22.03;43.44
67064;SHT30;58476;48.072;11.970;2024-02-23T14:51:03;22.07;43.38
67064;SHT30;58476;48.072;11.970;2024-02-23T14:53:29;22.07;43.33
67064;SHT30;58476;48.072;11.970;2024-02-23T14:55:54;22.07;43.37
67064;SHT30;58476;48.072;11.970;2024-02-23T14:58:19;22.05;43.41
67064;SHT30;58476;48.072;11.970;2024-02-23T15:00:45;22.07;43.31
67064;SHT30;58476;48.072;11.970;2024-02-23T15:03:10;22.09;43.33
67064;SHT30;58476;48.072;11.970;2024-02-23T15:05:35;22.07;43.31